createdAt,value
2018-06-04T00:00:05.365Z,46.6
2018-06-04T00:02:05.085Z,46.6
2018-06-04T00:04:05.790Z,46.5
2018-06-04T00:06:05.503Z,46.5
2018-06-04T00:08:05.279Z,46.5
2018-06-04T00:10:06.015Z,46.5
2018-06-04T00:12:08.378Z,46.5
2018-06-04T00:14:05.236Z,46.3
2018-06-04T00:16:06.008Z,46.5
2018-06-04T00:18:05.959Z,46.5
2018-06-04T00:20:13.215Z,46.5
2018-06-04T00:22:05.927Z,46.5
2018-06-04T00:24:05.697Z,46.3
2018-06-04T00:26:08.331Z,46.5
2018-06-04T00:28:05.029Z,46.5
2018-06-04T00:30:08.272Z,46.3
2018-06-04T00:32:07.539Z,46.4
2018-06-04T00:34:05.207Z,46.5
2018-06-04T00:36:08.498Z,46.4
2018-06-04T00:38:05.186Z,46.4
2018-06-04T00:40:05.983Z,46.4
2018-06-04T00:42:05.692Z,46.4
2018-06-04T00:44:05.568Z,46.4
2018-06-04T00:46:05.244Z,46.4
2018-06-04T00:48:05.952Z,46.4
2018-06-04T00:50:05.711Z,46.3
2018-06-04T00:52:05.870Z,46.3
2018-06-04T00:54:05.092Z,46.4
2018-06-04T00:56:05.805Z,46.4
2018-06-04T00:58:06.536Z,46.4
2018-06-04T01:00:07.944Z,46.3
2018-06-04T01:02:05.613Z,46.3
2018-06-04T01:04:05.323Z,46.2
2018-06-04T01:06:05.638Z,46.1
2018-06-04T01:08:05.601Z,46.2
2018-06-04T01:10:05.974Z,46.2
2018-06-04T01:12:05.674Z,46.3
2018-06-04T01:14:05.367Z,46.2
2018-06-04T01:16:05.087Z,46.3
2018-06-04T01:18:05.946Z,46.2
2018-06-04T01:20:13.214Z,46.2
2018-06-04T01:22:05.883Z,46.2
2018-06-04T01:24:05.582Z,46.1
2018-06-04T01:26:06.087Z,46.2
2018-06-04T01:28:05.343Z,46.2
2018-06-04T01:30:07.609Z,46.2
2018-06-04T01:32:05.513Z,46.2
2018-06-04T01:34:07.809Z,46.2
2018-06-04T01:36:10.751Z,46.1
2018-06-04T01:38:08.001Z,46.2
2018-06-04T01:40:05.719Z,46.2
2018-06-04T01:42:08.007Z,46.4
2018-06-04T01:44:08.299Z,46.1
2018-06-04T01:46:07.598Z,46.1
2018-06-04T01:48:10.389Z,46.1
2018-06-04T01:50:10.176Z,46.1
2018-06-04T01:52:05.901Z,46.1
2018-06-04T01:54:05.584Z,46.3
2018-06-04T01:56:05.290Z,46.1
2018-06-04T01:58:05.976Z,46.1
2018-06-04T02:00:05.203Z,46.1
2018-06-04T02:02:05.932Z,46.1
2018-06-04T02:04:07.659Z,46.1
2018-06-04T02:06:05.370Z,46.1
2018-06-04T02:08:10.102Z,46.1
2018-06-04T02:10:07.882Z,46.1
2018-06-04T02:12:10.627Z,46.1
2018-06-04T02:14:07.855Z,46.1
2018-06-04T02:16:05.532Z,46
2018-06-04T02:18:07.982Z,46.1
2018-06-04T02:20:05.788Z,46.1
2018-06-04T02:22:05.485Z,46.1
2018-06-04T02:24:05.775Z,46.1
2018-06-04T02:26:05.068Z,46
2018-06-04T02:28:05.747Z,45.9
2018-06-04T02:30:05.959Z,46
2018-06-04T02:32:05.663Z,46
2018-06-04T02:34:05.389Z,46.1
2018-06-04T02:36:05.684Z,46
2018-06-04T02:38:05.598Z,46.1
2018-06-04T02:40:05.287Z,46
2018-06-04T02:42:08.510Z,45.9
2018-06-04T02:44:05.997Z,45.9
2018-06-04T02:46:05.710Z,46
2018-06-04T02:48:07.976Z,46
2018-06-04T02:50:06.130Z,46
2018-06-04T02:52:05.292Z,45.9
2018-06-04T02:54:04.991Z,45.9
2018-06-04T02:56:05.720Z,45.9
2018-06-04T02:58:05.447Z,45.9
2018-06-04T03:00:05.266Z,45.8
2018-06-04T03:02:05.945Z,45.8
2018-06-04T03:04:05.734Z,45.8
2018-06-04T03:06:07.564Z,45.8
2018-06-04T03:08:05.230Z,45.8
2018-06-04T03:10:05.950Z,45.8
2018-06-04T03:12:08.193Z,45.8
2018-06-04T03:14:05.982Z,45.7
2018-06-04T03:16:10.786Z,45.8
2018-06-04T03:18:05.768Z,45.8
2018-06-04T03:20:15.645Z,45.6
2018-06-04T03:22:07.913Z,45.6
2018-06-04T03:26:05.334Z,45.6
2018-06-04T03:28:08.022Z,45.6
2018-06-04T03:30:08.281Z,45.6
2018-06-04T03:32:10.371Z,45.6
2018-06-04T03:34:05.106Z,45.6
2018-06-04T03:36:05.772Z,45.6
2018-06-04T03:38:08.358Z,45.6
2018-06-04T03:40:05.066Z,45.6
2018-06-04T03:42:05.837Z,45.6
2018-06-04T03:44:05.102Z,45.6
2018-06-04T03:46:05.796Z,45.6
2018-06-04T03:48:13.138Z,45.6
2018-06-04T03:50:08.175Z,45.6
2018-06-04T03:52:05.720Z,45.6
2018-06-04T03:54:05.672Z,45.6
2018-06-04T03:56:07.931Z,45.6
2018-06-04T03:58:08.114Z,45.6
2018-06-04T04:00:05.369Z,45.6
2018-06-04T04:02:07.571Z,45.6
2018-06-04T04:04:05.247Z,45.6
2018-06-04T04:06:06.036Z,45.6
2018-06-04T04:08:08.316Z,45.4
2018-06-04T04:10:05.011Z,45.5
2018-06-04T04:12:05.756Z,45.5
2018-06-04T04:14:05.726Z,45.6
2018-06-04T04:16:13.083Z,45.5
2018-06-04T04:18:08.653Z,45.5
2018-06-04T04:20:05.576Z,45.4
2018-06-04T04:22:05.273Z,45.4
2018-06-04T04:24:05.946Z,45.4
2018-06-04T04:26:08.442Z,45.4
2018-06-04T04:28:05.104Z,45.4
2018-06-04T04:30:05.763Z,45.4
2018-06-04T04:32:05.456Z,45.4
2018-06-04T04:34:05.141Z,45.4
2018-06-04T04:36:05.806Z,45.4
2018-06-04T04:38:05.741Z,45.4
2018-06-04T04:40:05.479Z,45.4
2018-06-04T04:42:05.683Z,45.4
2018-06-04T04:44:05.380Z,45.4
2018-06-04T04:46:05.149Z,45.4
2018-06-04T04:48:05.921Z,45.4
2018-06-04T04:50:05.175Z,45.3
2018-06-04T04:52:09.433Z,45.3
2018-06-04T04:54:07.862Z,45.5
2018-06-04T04:56:08.088Z,45.5
2018-06-04T04:58:05.774Z,45.5
2018-06-04T05:00:08.516Z,45.4
2018-06-04T05:02:05.194Z,45.4
2018-06-04T05:04:08.405Z,45.4
2018-06-04T05:06:05.653Z,45.6
2018-06-04T05:08:05.560Z,45.5
2018-06-04T05:10:05.388Z,45.5
2018-06-04T05:12:05.160Z,45.5
2018-06-04T05:14:05.878Z,45.5
2018-06-04T05:16:13.146Z,45.4
2018-06-04T05:18:05.530Z,45.4
2018-06-04T05:20:05.215Z,45.6
2018-06-04T05:22:05.936Z,45.4
2018-06-04T05:24:05.590Z,45.5
2018-06-04T05:26:05.824Z,45.5
2018-06-04T05:28:10.576Z,45.5
2018-06-04T05:30:07.759Z,45.4
2018-06-04T05:32:07.991Z,45.4
2018-06-04T05:34:05.854Z,45.4
2018-06-04T05:36:05.692Z,45.5
2018-06-04T05:38:05.430Z,45.6
2018-06-04T05:40:05.158Z,45.4
2018-06-04T05:42:05.352Z,45.5
2018-06-04T05:44:10.077Z,45.4
2018-06-04T05:46:05.731Z,45.6
2018-06-04T05:48:05.923Z,45.5
2018-06-04T05:50:05.781Z,45.5
2018-06-04T05:52:05.428Z,45.6
2018-06-04T05:54:05.187Z,45.3
2018-06-04T05:56:05.897Z,45.4
2018-06-04T05:58:08.106Z,45.5
2018-06-04T06:00:05.766Z,45.5
2018-06-04T06:02:13.136Z,45.5
2018-06-04T06:04:05.775Z,45.5
2018-06-04T06:06:05.441Z,45.5
2018-06-04T06:08:07.671Z,45.3
2018-06-04T06:10:07.973Z,45.7
2018-06-04T06:12:05.679Z,45.5
2018-06-04T06:14:08.012Z,45.5
2018-06-04T06:16:05.792Z,45.5
2018-06-04T06:18:05.694Z,45.4
2018-06-04T06:20:06.200Z,45.5
2018-06-04T06:22:05.400Z,45.5
2018-06-04T06:24:05.144Z,45.6
2018-06-04T06:26:05.406Z,45.6
2018-06-04T06:28:05.150Z,45.6
2018-06-04T06:30:08.410Z,45.6
2018-06-04T06:32:10.148Z,45.5
2018-06-04T06:34:05.880Z,45.5
2018-06-04T06:36:05.528Z,45.7
2018-06-04T06:38:05.312Z,45.6
2018-06-04T06:40:07.548Z,45.6
2018-06-04T06:42:05.272Z,45.6
2018-06-04T06:44:06.047Z,45.5
2018-06-04T06:46:05.314Z,45.7
2018-06-04T06:48:06.117Z,45.7
2018-06-04T06:50:05.997Z,45.6
2018-06-04T06:52:05.467Z,45.6
2018-06-04T06:54:05.123Z,45.8
2018-06-04T06:56:05.931Z,45.7
2018-06-04T06:58:05.707Z,45.7
2018-06-04T07:00:05.930Z,45.7
2018-06-04T07:02:05.635Z,45.6
2018-06-04T07:04:05.475Z,46
2018-06-04T07:06:07.722Z,45.9
2018-06-04T07:08:05.509Z,45.8
2018-06-04T07:10:08.229Z,45.8
2018-06-04T07:12:05.895Z,45.8
2018-06-04T07:14:05.816Z,45.8
2018-06-04T07:16:08.057Z,45.8
2018-06-04T07:18:05.966Z,45.8
2018-06-04T07:20:08.179Z,45.9
2018-06-04T07:22:05.894Z,45.9
2018-06-04T07:24:07.635Z,45.9
2018-06-04T07:26:05.316Z,45.8
2018-06-04T07:28:06.049Z,45.7
2018-06-04T07:30:05.732Z,45.8
2018-06-04T07:32:05.464Z,45.6
2018-06-04T07:34:05.233Z,45.7
2018-06-04T07:36:05.899Z,45.8
2018-06-04T07:38:05.647Z,45.8
2018-06-04T07:40:07.869Z,45.7
2018-06-04T07:42:05.128Z,45.7
2018-06-04T07:44:13.434Z,45.8
2018-06-04T07:46:05.392Z,45.8
2018-06-04T07:48:07.643Z,45.8
2018-06-04T07:50:08.107Z,45.7
2018-06-04T07:52:05.780Z,45.7
2018-06-04T07:54:06.675Z,45.7
2018-06-04T07:56:05.609Z,45.8
2018-06-04T07:58:05.550Z,45.8
2018-06-04T08:00:05.247Z,45.7
2018-06-04T08:02:07.979Z,45.8
2018-06-04T08:04:08.346Z,45.7
2018-06-04T08:06:07.638Z,45.7
2018-06-04T08:08:05.452Z,45.7
2018-06-04T08:10:05.987Z,45.8
2018-06-04T08:12:06.101Z,45.7
2018-06-04T08:14:05.998Z,45.7
2018-06-04T08:16:05.670Z,45.6
2018-06-04T08:18:05.641Z,45.7
2018-06-04T08:20:08.100Z,45.4
2018-06-04T08:22:10.872Z,45.6
2018-06-04T08:24:05.642Z,45.6
2018-06-04T08:26:05.493Z,45.5
2018-06-04T08:28:05.214Z,45.5
2018-06-04T08:30:05.920Z,45.4
2018-06-04T08:32:05.625Z,45.4
2018-06-04T08:34:05.283Z,45.4
2018-06-04T08:36:05.964Z,45.4
2018-06-04T08:38:05.666Z,45.5
2018-06-04T08:40:05.371Z,45.4
2018-06-04T08:42:05.564Z,45.3
2018-06-04T08:44:08.094Z,45.3
2018-06-04T08:46:10.881Z,45.5
2018-06-04T08:48:08.116Z,45.3
2018-06-04T08:50:05.794Z,45.3
2018-06-04T08:52:08.069Z,45.4
2018-06-04T08:54:08.259Z,45.5
2018-06-04T08:56:05.981Z,45.3
2018-06-04T08:58:05.219Z,45.3
2018-06-04T09:00:06.011Z,45.5
2018-06-04T09:02:05.403Z,45.4
2018-06-04T09:04:05.100Z,45.3
2018-06-04T09:06:08.381Z,45.4
2018-06-04T09:08:05.139Z,45.4
2018-06-04T09:10:05.824Z,45.4
2018-06-04T09:12:05.658Z,45.2
2018-06-04T09:14:05.366Z,45.3
2018-06-04T09:16:05.151Z,45.1
2018-06-04T09:18:10.170Z,45.2
2018-06-04T09:20:05.842Z,45
2018-06-04T09:22:08.296Z,45.3
2018-06-04T09:24:05.279Z,45.1
2018-06-04T09:26:05.982Z,45.1
2018-06-04T09:28:10.503Z,45.2
2018-06-04T09:30:12.806Z,45.3
2018-06-04T09:32:05.589Z,45.3
2018-06-04T09:34:06.283Z,45.3
2018-06-04T09:36:07.511Z,45.2
2018-06-04T09:38:05.486Z,45.2
2018-06-04T09:40:07.874Z,45.3
2018-06-04T09:42:06.016Z,45.2
2018-06-04T09:44:05.944Z,45.4
2018-06-04T09:46:05.839Z,45.4
2018-06-04T09:48:10.694Z,45.5
2018-06-04T09:50:07.897Z,45.6
2018-06-04T09:52:05.629Z,45.6
2018-06-04T09:54:05.424Z,45.6
2018-06-04T09:56:07.713Z,45.5
2018-06-04T09:58:10.207Z,45.5
2018-06-04T10:00:05.994Z,45.4
2018-06-04T10:02:05.722Z,45.5
2018-06-04T10:04:05.414Z,45.6
2018-06-04T10:06:05.078Z,45.6
2018-06-04T10:08:05.816Z,45.7
2018-06-04T10:10:10.584Z,45.7
2018-06-04T10:12:05.387Z,45.8
2018-06-04T10:14:05.126Z,45.9
2018-06-04T10:16:05.822Z,45.8
2018-06-04T10:18:05.739Z,45.7
2018-06-04T10:20:12.663Z,45.8
2018-06-04T10:22:10.437Z,45.7
2018-06-04T10:24:05.211Z,45.8
2018-06-04T10:26:05.922Z,45.8
2018-06-04T10:28:07.669Z,45.8
2018-06-04T10:30:05.362Z,45.8
2018-06-04T10:32:05.066Z,45.7
2018-06-04T10:34:08.237Z,45.8
2018-06-04T10:36:08.437Z,45.9
2018-06-04T10:38:07.965Z,45.9
2018-06-04T10:40:08.194Z,45.9
2018-06-04T10:42:05.389Z,45.9
2018-06-04T10:44:05.795Z,45.7
2018-06-04T10:46:05.588Z,45.8
2018-06-04T10:48:07.882Z,45.8
2018-06-04T10:50:05.627Z,45.8
2018-06-04T10:52:05.381Z,45.9
2018-06-04T10:54:10.937Z,45.8
2018-06-04T10:56:05.759Z,45.8
2018-06-04T10:58:05.488Z,45.6
2018-06-04T11:00:05.221Z,45.6
2018-06-04T11:02:08.467Z,45.4
2018-06-04T11:04:05.716Z,45.7
2018-06-04T11:06:05.529Z,45.8
2018-06-04T11:08:07.834Z,45.9
2018-06-04T11:10:08.116Z,45.8
2018-06-04T11:12:05.839Z,45.8
2018-06-04T11:14:05.076Z,45.8
2018-06-04T11:16:05.825Z,45.9
2018-06-04T11:18:05.796Z,45.8
2018-06-04T11:20:18.236Z,45.7
2018-06-04T11:22:05.955Z,45.6
2018-06-04T11:24:05.618Z,45.6
2018-06-04T11:26:05.534Z,45.6
2018-06-04T11:28:05.239Z,45.8
2018-06-04T11:30:07.682Z,45.6
2018-06-04T11:32:05.358Z,45.6
2018-06-04T11:34:05.060Z,45.6
2018-06-04T11:36:05.768Z,45.6
2018-06-04T11:38:05.461Z,45.6
2018-06-04T11:40:05.148Z,45.5
2018-06-04T11:42:05.866Z,45.4
2018-06-04T11:44:08.131Z,45.5
2018-06-04T11:46:05.820Z,45.5
2018-06-04T11:48:04.989Z,45.3
2018-06-04T11:50:05.700Z,45.3
2018-06-04T11:52:08.915Z,45.4
2018-06-04T11:54:05.663Z,45.5
2018-06-04T11:56:05.325Z,45.3
2018-06-04T11:58:04.983Z,45.4
2018-06-04T12:00:10.278Z,45.6
2018-06-04T12:02:08.767Z,45.6
2018-06-04T12:04:05.440Z,45.4
2018-06-04T12:06:07.670Z,45.5
2018-06-04T12:08:05.382Z,45.5
2018-06-04T12:10:05.082Z,45.5
2018-06-04T12:12:05.694Z,45.6
2018-06-04T12:14:10.539Z,45.5
2018-06-04T12:16:05.264Z,45.5
2018-06-04T12:18:05.675Z,45.4
2018-06-04T12:20:05.804Z,45.6
2018-06-04T12:22:07.903Z,45.5
2018-06-04T12:24:06.247Z,45.4
2018-06-04T12:26:05.164Z,45.5
2018-06-04T12:28:08.484Z,45.6
2018-06-04T12:30:05.342Z,45.6
2018-06-04T12:32:05.713Z,45.5
2018-06-04T12:34:05.339Z,45.7
2018-06-04T12:36:05.131Z,45.7
2018-06-04T12:38:05.875Z,45.7
2018-06-04T12:40:05.528Z,45.9
2018-06-04T12:42:05.247Z,46
2018-06-04T12:44:08.503Z,45.9
2018-06-04T12:46:05.176Z,45.9
2018-06-04T12:48:05.934Z,46.2
2018-06-04T12:50:08.185Z,46.1
2018-06-04T12:52:06.004Z,46.1
2018-06-04T12:54:05.690Z,46.1
2018-06-04T12:56:08.474Z,46
2018-06-04T12:58:05.276Z,46
2018-06-04T13:00:06.023Z,46
2018-06-04T13:02:05.939Z,46
2018-06-04T13:04:05.616Z,46.1
2018-06-04T13:06:05.273Z,46.1
2018-06-04T13:08:05.989Z,46.1
2018-06-04T13:10:05.736Z,46.2
2018-06-04T13:12:05.389Z,46.3
2018-06-04T13:14:08.132Z,46.1
2018-06-04T13:16:08.458Z,46.1
2018-06-04T13:18:05.365Z,46.1
2018-06-04T13:20:05.194Z,46.1
2018-06-04T13:22:05.885Z,46
2018-06-04T13:24:10.636Z,46.1
2018-06-04T13:26:05.876Z,46.1
2018-06-04T13:28:05.595Z,46.2
2018-06-04T13:30:07.908Z,46.1
2018-06-04T13:32:05.595Z,46.1
2018-06-04T13:34:07.780Z,46.3
2018-06-04T13:36:05.957Z,46.1
2018-06-04T13:38:05.439Z,46.1
2018-06-04T13:40:05.200Z,46.3
2018-06-04T13:42:05.870Z,46.1
2018-06-04T13:44:05.571Z,46.3
2018-06-04T13:46:05.217Z,46.2
2018-06-04T13:48:05.439Z,46.2
2018-06-04T13:50:05.377Z,46.2
2018-06-04T13:52:05.035Z,46.2
2018-06-04T13:54:05.819Z,46.2
2018-06-04T13:56:11.125Z,46.2
2018-06-04T13:58:05.095Z,46.2
2018-06-04T14:00:08.374Z,46.1
2018-06-04T14:02:07.600Z,46.1
2018-06-04T14:04:13.409Z,46.1
2018-06-04T14:06:05.158Z,46.1
2018-06-04T14:08:13.481Z,46.2
2018-06-04T14:10:05.209Z,46.2
2018-06-04T14:12:06.048Z,46.2
2018-06-04T14:14:05.331Z,46.1
2018-06-04T14:16:07.868Z,46.3
2018-06-04T14:18:08.234Z,46.1
2018-06-04T14:20:08.417Z,46
2018-06-04T14:22:05.167Z,46
2018-06-04T14:24:05.056Z,45.9
2018-06-04T14:26:05.761Z,45.8
2018-06-04T14:28:05.431Z,45.8
2018-06-04T14:30:05.106Z,45.9
2018-06-04T14:32:08.300Z,46.2
2018-06-04T14:34:06.065Z,46
2018-06-04T14:36:05.718Z,46.2
2018-06-04T14:38:08.254Z,46.2
2018-06-04T14:40:06.111Z,46.2
2018-06-04T14:42:05.387Z,46.2
2018-06-04T14:44:05.068Z,46.1
2018-06-04T14:46:13.342Z,46.1
2018-06-04T14:48:05.699Z,46.1
2018-06-04T14:50:05.505Z,46.1
2018-06-04T14:52:05.795Z,46.2
2018-06-04T14:54:09.212Z,46.2
2018-06-04T14:56:05.878Z,46.2
2018-06-04T14:58:11.627Z,46.1
2018-06-04T15:00:05.958Z,46.2
2018-06-04T15:02:05.691Z,46.3
2018-06-04T15:04:09.571Z,46.2
2018-06-04T15:06:05.306Z,46.2
2018-06-04T15:08:06.060Z,46.1
2018-06-04T15:10:05.736Z,46.4
2018-06-04T15:12:10.553Z,46.3
2018-06-04T15:14:05.954Z,46.1
2018-06-04T15:16:08.237Z,46.2
2018-06-04T15:18:10.374Z,46.3
2018-06-04T15:20:05.755Z,46.3
2018-06-04T15:22:05.467Z,46.3
2018-06-04T15:24:05.707Z,46.3
2018-06-04T15:26:10.713Z,46.3
2018-06-04T15:28:05.384Z,46.3
2018-06-04T15:30:07.642Z,46.6
2018-06-04T15:32:06.015Z,46.4
2018-06-04T15:34:06.304Z,46.6
2018-06-04T15:36:05.945Z,46.5
2018-06-04T15:38:05.789Z,46.6
2018-06-04T15:40:05.639Z,46.6
2018-06-04T15:42:05.532Z,46.6
2018-06-04T15:44:07.768Z,46.6
2018-06-04T15:46:05.517Z,46.6
2018-06-04T15:48:08.270Z,46.6
2018-06-04T15:50:06.056Z,46.6
2018-06-04T15:52:05.964Z,46.6
2018-06-04T15:54:05.641Z,46.6
2018-06-04T15:56:05.373Z,46.7
2018-06-04T15:58:05.077Z,46.6
2018-06-04T16:00:05.828Z,46.6
2018-06-04T16:02:05.485Z,46.7
2018-06-04T16:04:10.228Z,46.6
2018-06-04T16:06:08.611Z,46.6
2018-06-04T16:08:12.930Z,46.7
2018-06-04T16:10:05.629Z,46.7
2018-06-04T16:12:06.021Z,46.7
2018-06-04T16:14:10.897Z,46.6
2018-06-04T16:16:05.703Z,46.7
2018-06-04T16:18:05.592Z,46.7
2018-06-04T16:20:05.576Z,46.7
2018-06-04T16:22:07.854Z,46.7
2018-06-04T16:24:05.871Z,46.7
2018-06-04T16:26:10.134Z,46.6
2018-06-04T16:28:10.887Z,46.7
2018-06-04T16:30:08.347Z,46.7
2018-06-04T16:32:10.622Z,46.9
2018-06-04T16:34:05.396Z,46.7
2018-06-04T16:36:05.095Z,46.7
2018-06-04T16:38:05.334Z,46.7
2018-06-04T16:40:05.284Z,46.7
2018-06-04T16:42:05.019Z,46.9
2018-06-04T16:44:05.725Z,46.8
2018-06-04T16:46:05.385Z,46.8
2018-06-04T16:48:07.632Z,47
2018-06-04T16:50:05.374Z,46.8
2018-06-04T16:52:05.258Z,47
2018-06-04T16:54:09.556Z,47
2018-06-04T16:56:05.247Z,46.8
2018-06-04T16:58:05.919Z,46.8
2018-06-04T17:00:05.616Z,47
2018-06-04T17:02:05.257Z,47
2018-06-04T17:04:05.953Z,47.1
2018-06-04T17:06:05.652Z,47.1
2018-06-04T17:08:05.366Z,47.1
2018-06-04T17:10:07.716Z,47.1
2018-06-04T17:12:05.478Z,47.1
2018-06-04T17:14:07.970Z,47
2018-06-04T17:16:05.670Z,47
2018-06-04T17:18:05.577Z,47.2
2018-06-04T17:20:05.857Z,47.2
2018-06-04T17:22:05.559Z,47.2
2018-06-04T17:24:05.327Z,47.1
2018-06-04T17:26:05.119Z,47.3
2018-06-04T17:28:05.872Z,47.2
2018-06-04T17:30:10.763Z,47.3
2018-06-04T17:32:08.004Z,47.3
2018-06-04T17:34:05.683Z,47.3
2018-06-04T17:36:13.447Z,47.3
2018-06-04T17:38:05.154Z,47.3
2018-06-04T17:40:05.929Z,47.3
2018-06-04T17:42:05.599Z,47.4
2018-06-04T17:44:07.796Z,47.3
2018-06-04T17:46:05.475Z,47.4
2018-06-04T17:48:07.692Z,47.4
2018-06-04T17:50:07.960Z,47.4
2018-06-04T17:52:07.698Z,47.4
2018-06-04T17:54:08.510Z,47.4
2018-06-04T17:56:05.769Z,47.4
2018-06-04T17:58:05.457Z,47.4
2018-06-04T18:00:07.649Z,47.4
2018-06-04T18:02:05.355Z,47.4
2018-06-04T18:04:05.012Z,47.5
2018-06-04T18:06:08.336Z,47.4
2018-06-04T18:08:07.578Z,47.4
2018-06-04T18:10:05.336Z,47.4
2018-06-04T18:12:07.585Z,47.5
2018-06-04T18:14:05.288Z,47.5
2018-06-04T18:16:05.453Z,47.5
2018-06-04T18:18:13.017Z,47.5
2018-06-04T18:20:05.841Z,47.5
2018-06-04T18:22:05.625Z,47.5
2018-06-04T18:24:05.813Z,47.5
2018-06-04T18:26:10.637Z,47.6
2018-06-04T18:28:05.471Z,47.5
2018-06-04T18:30:05.209Z,47.6
2018-06-04T18:32:08.651Z,47.6
2018-06-04T18:34:05.355Z,47.6
2018-06-04T18:36:05.068Z,47.4
2018-06-04T18:38:10.818Z,47.6
2018-06-04T18:40:10.589Z,47.4
2018-06-04T18:42:05.832Z,47.4
2018-06-04T18:44:05.507Z,47.6
2018-06-04T18:46:05.241Z,47.4
2018-06-04T18:48:05.034Z,47.4
2018-06-04T18:50:08.490Z,47.5
2018-06-04T18:52:10.220Z,47.2
2018-06-04T18:54:05.983Z,47.1
2018-06-04T18:56:05.232Z,47.1
2018-06-04T18:58:05.493Z,46.9
2018-06-04T19:00:08.414Z,46.9
2018-06-04T19:02:05.077Z,46.7
2018-06-04T19:04:05.350Z,47
2018-06-04T19:06:08.212Z,47.2
2018-06-04T19:08:05.982Z,47.2
2018-06-04T19:10:08.169Z,47.2
2018-06-04T19:12:05.820Z,47.2
2018-06-04T19:14:10.543Z,47.1
2018-06-04T19:16:07.977Z,47.1
2018-06-04T19:18:05.853Z,47.1
2018-06-04T19:20:12.619Z,47.1
2018-06-04T19:22:05.233Z,47.1
2018-06-04T19:24:05.866Z,47.1
2018-06-04T19:26:05.632Z,47
2018-06-04T19:28:07.909Z,47
2018-06-04T19:30:05.600Z,47
2018-06-04T19:32:05.391Z,47
2018-06-04T19:34:10.221Z,47.1
2018-06-04T19:36:05.933Z,47.1
2018-06-04T19:38:05.258Z,47.3
2018-06-04T19:40:05.052Z,47.2
2018-06-04T19:42:05.773Z,47.1
2018-06-04T19:44:10.561Z,47.2
2018-06-04T19:46:05.924Z,47.2
2018-06-04T19:48:05.354Z,47.2
2018-06-04T19:50:05.050Z,47.1
2018-06-04T19:52:05.798Z,47.2
2018-06-04T19:54:05.699Z,47.1
2018-06-04T19:56:05.731Z,47.3
2018-06-04T19:58:05.700Z,47.2
2018-06-04T20:00:05.138Z,47.2
2018-06-04T20:02:05.406Z,47
2018-06-04T20:04:05.164Z,47.3
2018-06-04T20:06:08.430Z,47.2
2018-06-04T20:08:05.683Z,47.2
2018-06-04T20:10:07.918Z,47
2018-06-04T20:12:05.825Z,47
2018-06-04T20:14:05.778Z,47.2
2018-06-04T20:16:05.484Z,47.1
2018-06-04T20:18:05.430Z,47
2018-06-04T20:20:05.337Z,47.1
2018-06-04T20:22:05.007Z,47.2
2018-06-04T20:24:05.874Z,47.3
2018-06-04T20:26:05.102Z,47.4
2018-06-04T20:28:07.868Z,47.1
2018-06-04T20:30:10.598Z,47.4
2018-06-04T20:32:07.901Z,47.2
2018-06-04T20:34:05.650Z,47.2
2018-06-04T20:36:07.891Z,47.1
2018-06-04T20:38:05.842Z,47.1
2018-06-04T20:40:05.177Z,47.2
2018-06-04T20:42:08.420Z,47.2
2018-06-04T20:44:05.313Z,47.2
2018-06-04T20:46:05.219Z,47.1
2018-06-04T20:48:08.541Z,47.1
2018-06-04T20:50:05.240Z,47.1
2018-06-04T20:52:05.971Z,47.2
2018-06-04T20:54:05.756Z,47.2
2018-06-04T20:56:05.488Z,47.3
2018-06-04T20:58:07.770Z,47.3
2018-06-04T21:00:08.034Z,47.1
2018-06-04T21:02:05.753Z,47.1
2018-06-04T21:04:05.994Z,47.1
2018-06-04T21:06:05.638Z,47.2
2018-06-04T21:08:05.406Z,47.3
2018-06-04T21:10:05.109Z,47.3
2018-06-04T21:12:10.845Z,47.2
2018-06-04T21:14:05.620Z,47.4
2018-06-04T21:16:05.297Z,47.2
2018-06-04T21:18:05.740Z,47.3
2018-06-04T21:20:06.249Z,47.3
2018-06-04T21:22:10.997Z,47.4
2018-06-04T21:24:05.241Z,47.4
2018-06-04T21:26:08.522Z,47.4
2018-06-04T21:28:05.436Z,47.4
2018-06-04T21:30:05.090Z,47.4
2018-06-04T21:32:05.785Z,47.4
2018-06-04T21:34:05.034Z,47.5
2018-06-04T21:36:08.185Z,47.3
2018-06-04T21:38:08.383Z,47.3
2018-06-04T21:40:06.710Z,47.3
2018-06-04T21:42:05.550Z,47.3
2018-06-04T21:44:05.232Z,47.4
2018-06-04T21:46:05.967Z,47.3
2018-06-04T21:48:05.177Z,47.2
2018-06-04T21:50:08.416Z,47.2
2018-06-04T21:52:07.700Z,47.4
2018-06-04T21:54:05.882Z,47.4
2018-06-04T21:56:07.655Z,47.3
2018-06-04T21:58:05.899Z,47.4
2018-06-04T22:00:05.512Z,47.7
2018-06-04T22:02:05.769Z,47.4
2018-06-04T22:04:05.428Z,47.6
2018-06-04T22:06:05.267Z,47.6
2018-06-04T22:08:05.943Z,47.6
2018-06-04T22:10:08.125Z,47.6
2018-06-04T22:12:08.341Z,47.6
2018-06-04T22:14:05.828Z,47.6
2018-06-04T22:16:10.556Z,47.5
2018-06-04T22:18:05.446Z,47.5
2018-06-04T22:20:07.686Z,47.5
2018-06-04T22:22:05.943Z,47.5
2018-06-04T22:24:05.621Z,47.5
2018-06-04T22:26:05.935Z,47.5
2018-06-04T22:28:05.630Z,47.5
2018-06-04T22:30:05.815Z,47.3
2018-06-04T22:32:09.052Z,47.5
2018-06-04T22:34:08.257Z,47.4
2018-06-04T22:36:05.512Z,47.4
2018-06-04T22:38:05.201Z,47.5
2018-06-04T22:40:05.875Z,47.5
2018-06-04T22:42:05.603Z,47.5
2018-06-04T22:44:05.333Z,47.5
2018-06-04T22:46:05.012Z,47.8
2018-06-04T22:48:05.696Z,47.7
2018-06-04T22:50:10.436Z,48
2018-06-04T22:52:05.109Z,48.1
2018-06-04T22:54:05.871Z,47.8
2018-06-04T22:56:05.643Z,47.9
2018-06-04T22:58:05.363Z,47.9
2018-06-04T23:00:05.104Z,47.8
2018-06-04T23:02:05.840Z,48
2018-06-04T23:04:10.614Z,48.1
2018-06-04T23:06:10.370Z,48
2018-06-04T23:08:05.087Z,48
2018-06-04T23:10:08.317Z,48.1
2018-06-04T23:12:11.085Z,48.2
2018-06-04T23:14:05.543Z,48
2018-06-04T23:16:05.331Z,48
2018-06-04T23:18:05.733Z,48.3
2018-06-04T23:20:05.654Z,48.3
2018-06-04T23:22:10.400Z,48.5
2018-06-04T23:24:05.603Z,48.5
2018-06-04T23:26:05.330Z,48.4
2018-06-04T23:28:05.787Z,48.4
2018-06-04T23:30:05.465Z,48.4
2018-06-04T23:32:05.713Z,48.5
2018-06-04T23:34:05.386Z,48.2
2018-06-04T23:36:05.044Z,48.2
2018-06-04T23:38:05.960Z,48.4
2018-06-04T23:40:05.652Z,47.9
2018-06-04T23:42:05.346Z,48.4
2018-06-04T23:44:05.117Z,47.7
2018-06-04T23:46:07.939Z,48.4
2018-06-04T23:48:05.699Z,48.4
2018-06-04T23:50:05.446Z,48.3
2018-06-04T23:52:05.176Z,47.7
2018-06-04T23:54:05.896Z,48.3
2018-06-04T23:56:06.203Z,48.5
2018-06-04T23:58:05.863Z,48.7
